sensor_id;sensor_type;location;lat;lon;timestamp;temperature;humidity
52565;DHT22;38460;53.106;7.004;2022-09-27T00:00:33;10.50;99.90
52565;DHT22;38460;53.106;7.004;2022-09-27T00:02:59;10.40;99.90
52565;DHT22;38460;53.106;7.004;2022-09-27T00:05:29;10.50;99.90
52565;DHT22;38460;53.106;7.004;2022-09-27T00:07:55;10.40;99.90
52565;DHT22;38460;53.106;7.004;2022-09-27T00:10:21;10.40;99.90
52565;DHT22;38460;53.106;7.004;2022-09-27T00:12:47;10.40;99.90
52565;DHT22;38460;53.106;7.004;2022-09-27T00:15:13;10.40;99.90
52565;DHT22;38460;53.106;7.004;2022-09-27T00:17:39;10.40;99.90
52565;DHT22;38460;53.106;7.004;2022-09-27T00:20:06;10.40;99.90
52565;DHT22;38460;53.106;7.004;2022-09-27T00:22:32;10.40;99.90
52565;DHT22;38460;53.106;7.004;2022-09-27T00:24:58;10.40;99.90
52565;DHT22;38460;53.106;7.004;2022-09-27T00:27:25;10.40;99.90
52565;DHT22;38460;53.106;7.004;2022-09-27T00:29:51;10.30;99.90
52565;DHT22;38460;53.106;7.004;2022-09-27T00:32:17;10.30;99.90
52565;DHT22;38460;53.106;7.004;2022-09-27T00:34:42;10.30;99.90
52565;DHT22;38460;53.106;7.004;2022-09-27T00:37:09;10.30;99.90
52565;DHT22;38460;53.106;7.004;2022-09-27T00:39:35;10.30;99.90
52565;DHT22;38460;53.106;7.004;2022-09-27T00:42:04;10.30;99.90
52565;DHT22;38460;53.106;7.004;2022-09-27T00:50:00;10.20;99.90
52565;DHT22;38460;53.106;7.004;2022-09-27T00:52:44;10.20;99.90
52565;DHT22;38460;53.106;7.004;2022-09-27T00:55:19;10.20;99.90
52565;DHT22;38460;53.106;7.004;2022-09-27T00:57:48;10.20;99.90
52565;DHT22;38460;53.106;7.004;2022-09-27T01:00:15;10.10;99.90
52565;DHT22;38460;53.106;7.004;2022-09-27T01:02:51;10.10;99.90
52565;DHT22;38460;53.106;7.004;2022-09-27T01:05:20;10.10;99.90
52565;DHT22;38460;53.106;7.004;2022-09-27T01:07:47;10.10;99.90
52565;DHT22;38460;53.106;7.004;2022-09-27T01:10:13;10.00;99.90
52565;DHT22;38460;53.106;7.004;2022-09-27T01:18:15;10.00;99.90
52565;DHT22;38460;53.106;7.004;2022-09-27T01:37:22;9.90;99.90
52565;DHT22;38460;53.106;7.004;2022-09-27T01:39:59;9.90;99.90
52565;DHT22;38460;53.106;7.004;2022-09-27T01:43:04;9.90;99.90
52565;DHT22;38460;53.106;7.004;2022-09-27T01:45:39;9.80;99.90
52565;DHT22;38460;53.106;7.004;2022-09-27T01:48:32;9.80;99.90
52565;DHT22;38460;53.106;7.004;2022-09-27T01:51:08;9.80;99.90
52565;DHT22;38460;53.106;7.004;2022-09-27T01:53:38;9.80;99.90
52565;DHT22;38460;53.106;7.004;2022-09-27T01:56:09;9.80;99.90
52565;DHT22;38460;53.106;7.004;2022-09-27T02:01:25;9.80;99.90
52565;DHT22;38460;53.106;7.004;2022-09-27T02:03:54;9.80;99.90
52565;DHT22;38460;53.106;7.004;2022-09-27T02:06:25;9.80;99.90
52565;DHT22;38460;53.106;7.004;2022-09-27T02:09:02;9.80;99.90
52565;DHT22;38460;53.106;7.004;2022-09-27T02:11:30;9.80;99.90
52565;DHT22;38460;53.106;7.004;2022-09-27T02:14:10;9.80;99.90
52565;DHT22;38460;53.106;7.004;2022-09-27T02:16:48;9.80;99.90
52565;DHT22;38460;53.106;7.004;2022-09-27T02:24:46;9.80;99.90
52565;DHT22;38460;53.106;7.004;2022-09-27T02:27:28;9.80;99.90
52565;DHT22;38460;53.106;7.004;2022-09-27T02:30:01;9.70;99.90
52565;DHT22;38460;53.106;7.004;2022-09-27T02:32:28;9.70;99.90
52565;DHT22;38460;53.106;7.004;2022-09-27T02:34:55;9.70;99.90
52565;DHT22;38460;53.106;7.004;2022-09-27T02:37:22;9.70;99.90
52565;DHT22;38460;53.106;7.004;2022-09-27T02:39:48;9.70;99.90
52565;DHT22;38460;53.106;7.004;2022-09-27T02:42:14;9.60;99.90
52565;DHT22;38460;53.106;7.004;2022-09-27T02:44:40;9.70;99.90
52565;DHT22;38460;53.106;7.004;2022-09-27T02:47:16;9.60;99.90
52565;DHT22;38460;53.106;7.004;2022-09-27T02:52:25;9.60;99.90
52565;DHT22;38460;53.106;7.004;2022-09-27T02:55:15;9.60;99.90
52565;DHT22;38460;53.106;7.004;2022-09-27T03:00:29;9.60;99.90
52565;DHT22;38460;53.106;7.004;2022-09-27T03:03:17;9.60;99.90
52565;DHT22;38460;53.106;7.004;2022-09-27T03:08:27;9.60;99.90
52565;DHT22;38460;53.106;7.004;2022-09-27T03:10:53;9.60;99.90
52565;DHT22;38460;53.106;7.004;2022-09-27T03:13:18;9.60;99.90
52565;DHT22;38460;53.106;7.004;2022-09-27T03:15:44;9.50;99.90
52565;DHT22;38460;53.106;7.004;2022-09-27T03:18:10;9.50;99.90
52565;DHT22;38460;53.106;7.004;2022-09-27T03:20:35;9.50;99.90
52565;DHT22;38460;53.106;7.004;2022-09-27T03:23:01;9.50;99.90
52565;DHT22;38460;53.106;7.004;2022-09-27T03:25:27;9.50;99.90
52565;DHT22;38460;53.106;7.004;2022-09-27T03:27:53;9.50;99.90
52565;DHT22;38460;53.106;7.004;2022-09-27T03:30:18;9.40;99.90
52565;DHT22;38460;53.106;7.004;2022-09-27T03:32:44;9.40;99.90
52565;DHT22;38460;53.106;7.004;2022-09-27T03:35:11;9.40;99.90
52565;DHT22;38460;53.106;7.004;2022-09-27T03:37:38;9.40;99.90
52565;DHT22;38460;53.106;7.004;2022-09-27T03:40:04;9.40;99.90
52565;DHT22;38460;53.106;7.004;2022-09-27T03:42:30;9.40;99.90
52565;DHT22;38460;53.106;7.004;2022-09-27T03:44:56;9.40;99.90
52565;DHT22;38460;53.106;7.004;2022-09-27T03:47:22;9.40;99.90
52565;DHT22;38460;53.106;7.004;2022-09-27T03:49:48;9.30;99.90
52565;DHT22;38460;53.106;7.004;2022-09-27T03:52:14;9.30;99.90
52565;DHT22;38460;53.106;7.004;2022-09-27T03:54:41;9.30;99.90
52565;DHT22;38460;53.106;7.004;2022-09-27T03:57:07;9.30;99.90
52565;DHT22;38460;53.106;7.004;2022-09-27T03:59:33;9.30;99.90
52565;DHT22;38460;53.106;7.004;2022-09-27T04:01:58;9.30;99.90
52565;DHT22;38460;53.106;7.004;2022-09-27T04:04:24;9.30;99.90
52565;DHT22;38460;53.106;7.004;2022-09-27T04:06:50;9.30;99.90
52565;DHT22;38460;53.106;7.004;2022-09-27T04:09:15;9.30;99.90
52565;DHT22;38460;53.106;7.004;2022-09-27T04:11:41;9.30;99.90
52565;DHT22;38460;53.106;7.004;2022-09-27T04:14:07;9.30;99.90
52565;DHT22;38460;53.106;7.004;2022-09-27T04:16:34;9.30;99.90
52565;DHT22;38460;53.106;7.004;2022-09-27T04:18:59;9.30;99.90
52565;DHT22;38460;53.106;7.004;2022-09-27T04:21:27;9.20;99.90
52565;DHT22;38460;53.106;7.004;2022-09-27T04:23:53;9.20;99.90
52565;DHT22;38460;53.106;7.004;2022-09-27T04:26:19;9.20;99.90
52565;DHT22;38460;53.106;7.004;2022-09-27T04:28:46;9.20;99.90
52565;DHT22;38460;53.106;7.004;2022-09-27T04:31:11;9.20;99.90
52565;DHT22;38460;53.106;7.004;2022-09-27T04:33:37;9.20;99.90
52565;DHT22;38460;53.106;7.004;2022-09-27T04:36:03;9.20;99.90
52565;DHT22;38460;53.106;7.004;2022-09-27T04:38:47;9.20;99.90
52565;DHT22;38460;53.106;7.004;2022-09-27T04:41:13;9.10;99.90
52565;DHT22;38460;53.106;7.004;2022-09-27T04:43:40;9.10;99.90
52565;DHT22;38460;53.106;7.004;2022-09-27T04:46:05;9.10;99.90
52565;DHT22;38460;53.106;7.004;2022-09-27T04:48:31;9.10;99.90
52565;DHT22;38460;53.106;7.004;2022-09-27T04:50:58;9.10;99.90
52565;DHT22;38460;53.106;7.004;2022-09-27T04:53:27;9.10;99.90
52565;DHT22;38460;53.106;7.004;2022-09-27T04:55:54;9.10;99.90
52565;DHT22;38460;53.106;7.004;2022-09-27T04:58:21;9.10;99.90
52565;DHT22;38460;53.106;7.004;2022-09-27T05:00:48;9.10;99.90
52565;DHT22;38460;53.106;7.004;2022-09-27T05:03:16;9.10;99.90
52565;DHT22;38460;53.106;7.004;2022-09-27T05:05:41;9.10;99.90
52565;DHT22;38460;53.106;7.004;2022-09-27T05:08:07;9.10;99.90
52565;DHT22;38460;53.106;7.004;2022-09-27T05:10:33;9.10;99.90
52565;DHT22;38460;53.106;7.004;2022-09-27T05:12:58;9.10;99.90
52565;DHT22;38460;53.106;7.004;2022-09-27T05:15:24;9.10;99.90
52565;DHT22;38460;53.106;7.004;2022-09-27T05:17:50;9.10;99.90
52565;DHT22;38460;53.106;7.004;2022-09-27T05:20:17;9.00;99.90
52565;DHT22;38460;53.106;7.004;2022-09-27T05:22:44;9.10;99.90
52565;DHT22;38460;53.106;7.004;2022-09-27T05:25:09;9.00;99.90
52565;DHT22;38460;53.106;7.004;2022-09-27T05:27:35;9.10;99.90
52565;DHT22;38460;53.106;7.004;2022-09-27T05:30:01;9.00;99.90
52565;DHT22;38460;53.106;7.004;2022-09-27T05:32:28;9.00;99.90
52565;DHT22;38460;53.106;7.004;2022-09-27T05:34:54;9.00;99.90
52565;DHT22;38460;53.106;7.004;2022-09-27T05:37:20;9.00;99.90
52565;DHT22;38460;53.106;7.004;2022-09-27T05:39:46;9.00;99.90
52565;DHT22;38460;53.106;7.004;2022-09-27T05:42:12;9.00;99.90
52565;DHT22;38460;53.106;7.004;2022-09-27T05:44:40;9.00;99.90
52565;DHT22;38460;53.106;7.004;2022-09-27T05:47:06;9.10;99.90
52565;DHT22;38460;53.106;7.004;2022-09-27T05:49:32;9.00;99.90
52565;DHT22;38460;53.106;7.004;2022-09-27T05:51:58;9.10;99.90
52565;DHT22;38460;53.106;7.004;2022-09-27T05:54:24;9.00;99.90
52565;DHT22;38460;53.106;7.004;2022-09-27T05:56:54;9.00;99.90
52565;DHT22;38460;53.106;7.004;2022-09-27T05:59:23;9.00;99.90
52565;DHT22;38460;53.106;7.004;2022-09-27T06:01:50;9.10;99.90
52565;DHT22;38460;53.106;7.004;2022-09-27T06:04:16;9.10;99.90
52565;DHT22;38460;53.106;7.004;2022-09-27T06:06:42;9.10;99.90
52565;DHT22;38460;53.106;7.004;2022-09-27T06:09:13;9.10;99.90
52565;DHT22;38460;53.106;7.004;2022-09-27T06:11:40;9.10;99.90
52565;DHT22;38460;53.106;7.004;2022-09-27T06:14:07;9.10;99.90
52565;DHT22;38460;53.106;7.004;2022-09-27T06:16:35;9.10;99.90
52565;DHT22;38460;53.106;7.004;2022-09-27T06:19:01;9.10;99.90
52565;DHT22;38460;53.106;7.004;2022-09-27T06:21:29;9.10;99.90
52565;DHT22;38460;53.106;7.004;2022-09-27T06:23:56;9.30;99.90
52565;DHT22;38460;53.106;7.004;2022-09-27T06:26:24;9.10;99.90
52565;DHT22;38460;53.106;7.004;2022-09-27T06:28:52;9.20;99.90
52565;DHT22;38460;53.106;7.004;2022-09-27T06:31:17;9.20;99.90
52565;DHT22;38460;53.106;7.004;2022-09-27T06:33:43;9.20;99.90
52565;DHT22;38460;53.106;7.004;2022-09-27T06:36:10;9.20;99.90
52565;DHT22;38460;53.106;7.004;2022-09-27T06:38:36;9.20;99.90
52565;DHT22;38460;53.106;7.004;2022-09-27T06:41:04;9.20;99.90
52565;DHT22;38460;53.106;7.004;2022-09-27T06:43:31;9.30;99.90
52565;DHT22;38460;53.106;7.004;2022-09-27T06:46:01;9.30;99.90
52565;DHT22;38460;53.106;7.004;2022-09-27T06:48:31;9.30;99.90
52565;DHT22;38460;53.106;7.004;2022-09-27T06:50:57;9.30;99.90
52565;DHT22;38460;53.106;7.004;2022-09-27T06:53:24;9.30;99.90
52565;DHT22;38460;53.106;7.004;2022-09-27T06:55:50;9.30;99.90
52565;DHT22;38460;53.106;7.004;2022-09-27T06:58:16;9.30;99.90
52565;DHT22;38460;53.106;7.004;2022-09-27T07:01:01;9.40;99.90
52565;DHT22;38460;53.106;7.004;2022-09-27T07:03:27;9.40;99.90
52565;DHT22;38460;53.106;7.004;2022-09-27T07:05:59;9.40;99.90
52565;DHT22;38460;53.106;7.004;2022-09-27T07:08:26;9.40;99.90
52565;DHT22;38460;53.106;7.004;2022-09-27T07:10:54;9.40;99.90
52565;DHT22;38460;53.106;7.004;2022-09-27T07:13:20;9.40;99.90
52565;DHT22;38460;53.106;7.004;2022-09-27T07:15:46;9.50;99.90
52565;DHT22;38460;53.106;7.004;2022-09-27T07:18:12;9.50;99.90
52565;DHT22;38460;53.106;7.004;2022-09-27T07:20:38;9.50;99.90
52565;DHT22;38460;53.106;7.004;2022-09-27T07:23:08;9.50;99.90
52565;DHT22;38460;53.106;7.004;2022-09-27T07:25:35;9.50;99.90
52565;DHT22;38460;53.106;7.004;2022-09-27T07:28:04;9.50;99.90
52565;DHT22;38460;53.106;7.004;2022-09-27T07:30:32;9.60;99.90
52565;DHT22;38460;53.106;7.004;2022-09-27T07:32:59;9.60;99.90
52565;DHT22;38460;53.106;7.004;2022-09-27T07:35:25;9.60;99.90
52565;DHT22;38460;53.106;7.004;2022-09-27T07:37:52;9.60;99.90
52565;DHT22;38460;53.106;7.004;2022-09-27T07:40:17;9.60;99.90
52565;DHT22;38460;53.106;7.004;2022-09-27T07:42:44;9.60;99.90
52565;DHT22;38460;53.106;7.004;2022-09-27T07:45:10;9.60;99.90
52565;DHT22;38460;53.106;7.004;2022-09-27T07:47:40;9.70;99.90
52565;DHT22;38460;53.106;7.004;2022-09-27T07:50:08;9.70;99.90
52565;DHT22;38460;53.106;7.004;2022-09-27T07:52:41;9.70;99.90
52565;DHT22;38460;53.106;7.004;2022-09-27T07:55:09;9.80;99.90
52565;DHT22;38460;53.106;7.004;2022-09-27T07:57:35;9.80;99.90
52565;DHT22;38460;53.106;7.004;2022-09-27T08:00:03;9.80;99.90
52565;DHT22;38460;53.106;7.004;2022-09-27T08:02:29;9.80;99.90
52565;DHT22;38460;53.106;7.004;2022-09-27T08:04:58;9.90;99.90
52565;DHT22;38460;53.106;7.004;2022-09-27T08:07:24;9.90;99.90
52565;DHT22;38460;53.106;7.004;2022-09-27T08:09:50;10.00;99.90
52565;DHT22;38460;53.106;7.004;2022-09-27T08:12:16;10.00;99.90
52565;DHT22;38460;53.106;7.004;2022-09-27T08:14:41;10.10;99.90
52565;DHT22;38460;53.106;7.004;2022-09-27T08:17:11;10.10;99.90
52565;DHT22;38460;53.106;7.004;2022-09-27T08:19:38;10.10;99.90
52565;DHT22;38460;53.106;7.004;2022-09-27T08:22:08;10.20;99.90
52565;DHT22;38460;53.106;7.004;2022-09-27T08:24:34;10.10;99.90
52565;DHT22;38460;53.106;7.004;2022-09-27T08:27:01;10.20;99.90
52565;DHT22;38460;53.106;7.004;2022-09-27T08:29:26;10.20;99.90
52565;DHT22;38460;53.106;7.004;2022-09-27T08:31:52;10.20;99.90
52565;DHT22;38460;53.106;7.004;2022-09-27T08:34:19;10.30;99.90
52565;DHT22;38460;53.106;7.004;2022-09-27T08:36:46;10.30;99.90
52565;DHT22;38460;53.106;7.004;2022-09-27T08:39:11;10.40;99.90
52565;DHT22;38460;53.106;7.004;2022-09-27T08:47:03;10.40;99.90
52565;DHT22;38460;53.106;7.004;2022-09-27T08:52:06;10.50;99.90
52565;DHT22;38460;53.106;7.004;2022-09-27T08:54:34;10.50;99.90
52565;DHT22;38460;53.106;7.004;2022-09-27T08:57:03;10.50;99.90
52565;DHT22;38460;53.106;7.004;2022-09-27T08:59:41;10.60;99.90
52565;DHT22;38460;53.106;7.004;2022-09-27T09:02:20;10.60;99.90
52565;DHT22;38460;53.106;7.004;2022-09-27T09:04:53;10.70;99.90
52565;DHT22;38460;53.106;7.004;2022-09-27T09:13:24;10.90;99.90
52565;DHT22;38460;53.106;7.004;2022-09-27T09:27:37;11.30;99.90
52565;DHT22;38460;53.106;7.004;2022-09-27T09:30:21;11.30;99.90
52565;DHT22;38460;53.106;7.004;2022-09-27T09:35:43;11.30;99.90
52565;DHT22;38460;53.106;7.004;2022-09-27T09:38:37;11.30;99.90
52565;DHT22;38460;53.106;7.004;2022-09-27T09:44:03;11.20;99.90
52565;DHT22;38460;53.106;7.004;2022-09-27T09:46:40;11.30;99.90
52565;DHT22;38460;53.106;7.004;2022-09-27T09:49:21;11.30;99.90
52565;DHT22;38460;53.106;7.004;2022-09-27T09:51:51;11.40;99.90
52565;DHT22;38460;53.106;7.004;2022-09-27T09:54:30;11.40;99.90
52565;DHT22;38460;53.106;7.004;2022-09-27T09:57:02;11.50;99.90
52565;DHT22;38460;53.106;7.004;2022-09-27T09:59:46;11.60;99.90
52565;DHT22;38460;53.106;7.004;2022-09-27T10:02:34;11.60;99.90
52565;DHT22;38460;53.106;7.004;2022-09-27T10:05:00;11.60;99.90
52565;DHT22;38460;53.106;7.004;2022-09-27T10:07:28;11.60;99.90
52565;DHT22;38460;53.106;7.004;2022-09-27T10:09:59;11.60;99.90
52565;DHT22;38460;53.106;7.004;2022-09-27T10:12:26;11.60;99.90
52565;DHT22;38460;53.106;7.004;2022-09-27T10:14:53;11.70;99.90
52565;DHT22;38460;53.106;7.004;2022-09-27T10:17:23;11.70;99.90
52565;DHT22;38460;53.106;7.004;2022-09-27T10:19:50;11.70;99.90
52565;DHT22;38460;53.106;7.004;2022-09-27T10:22:31;11.70;99.90
52565;DHT22;38460;53.106;7.004;2022-09-27T10:25:04;11.80;99.90
52565;DHT22;38460;53.106;7.004;2022-09-27T10:28:01;11.80;99.90
52565;DHT22;38460;53.106;7.004;2022-09-27T10:30:32;11.80;99.90
52565;DHT22;38460;53.106;7.004;2022-09-27T10:33:04;11.80;99.90
52565;DHT22;38460;53.106;7.004;2022-09-27T10:35:34;11.80;99.90
52565;DHT22;38460;53.106;7.004;2022-09-27T10:40:46;11.60;99.90
52565;DHT22;38460;53.106;7.004;2022-09-27T10:45:59;11.50;99.90
52565;DHT22;38460;53.106;7.004;2022-09-27T10:48:27;11.40;99.90
52565;DHT22;38460;53.106;7.004;2022-09-27T10:50:58;11.30;99.90
52565;DHT22;38460;53.106;7.004;2022-09-27T10:53:26;11.20;99.90
52565;DHT22;38460;53.106;7.004;2022-09-27T10:55:52;11.10;99.90
52565;DHT22;38460;53.106;7.004;2022-09-27T11:01:18;10.90;99.90
52565;DHT22;38460;53.106;7.004;2022-09-27T11:03:48;10.80;99.90
52565;DHT22;38460;53.106;7.004;2022-09-27T11:08:51;10.70;99.90
52565;DHT22;38460;53.106;7.004;2022-09-27T11:11:20;10.70;99.90
52565;DHT22;38460;53.106;7.004;2022-09-27T11:14:19;10.70;99.90
52565;DHT22;38460;53.106;7.004;2022-09-27T11:31:11;10.90;99.90
52565;DHT22;38460;53.106;7.004;2022-09-27T11:45:12;11.20;99.90
52565;DHT22;38460;53.106;7.004;2022-09-27T12:06:21;12.90;99.90
52565;DHT22;38460;53.106;7.004;2022-09-27T12:09:13;13.00;99.90
52565;DHT22;38460;53.106;7.004;2022-09-27T12:11:46;13.20;99.90
52565;DHT22;38460;53.106;7.004;2022-09-27T12:16:55;13.20;99.90
52565;DHT22;38460;53.106;7.004;2022-09-27T12:19:29;13.00;99.90
52565;DHT22;38460;53.106;7.004;2022-09-27T12:22:01;12.80;99.90
52565;DHT22;38460;53.106;7.004;2022-09-27T12:24:29;12.60;99.90
52565;DHT22;38460;53.106;7.004;2022-09-27T12:27:03;12.50;99.90
52565;DHT22;38460;53.106;7.004;2022-09-27T12:29:35;12.40;99.90
52565;DHT22;38460;53.106;7.004;2022-09-27T12:32:25;12.30;99.90
52565;DHT22;38460;53.106;7.004;2022-09-27T12:35:03;12.20;99.90
52565;DHT22;38460;53.106;7.004;2022-09-27T12:45:15;12.20;99.90
52565;DHT22;38460;53.106;7.004;2022-09-27T12:50:54;12.30;99.90
52565;DHT22;38460;53.106;7.004;2022-09-27T12:53:24;12.50;99.90
52565;DHT22;38460;53.106;7.004;2022-09-27T12:56:18;12.70;99.90
52565;DHT22;38460;53.106;7.004;2022-09-27T13:04:39;13.00;99.90
52565;DHT22;38460;53.106;7.004;2022-09-27T13:09:57;13.00;99.90
52565;DHT22;38460;53.106;7.004;2022-09-27T13:12:26;12.90;99.90
52565;DHT22;38460;53.106;7.004;2022-09-27T13:15:06;12.80;99.90
52565;DHT22;38460;53.106;7.004;2022-09-27T13:22:56;12.40;99.90
52565;DHT22;38460;53.106;7.004;2022-09-27T13:26:00;12.40;99.90
52565;DHT22;38460;53.106;7.004;2022-09-27T13:31:09;12.30;99.90
52565;DHT22;38460;53.106;7.004;2022-09-27T13:39:02;12.20;99.90
52565;DHT22;38460;53.106;7.004;2022-09-27T13:47:11;12.10;99.90
52565;DHT22;38460;53.106;7.004;2022-09-27T13:49:40;12.10;99.90
52565;DHT22;38460;53.106;7.004;2022-09-27T13:54:55;12.00;99.90
52565;DHT22;38460;53.106;7.004;2022-09-27T14:00:27;12.00;99.90
52565;DHT22;38460;53.106;7.004;2022-09-27T14:08:35;12.00;99.90
52565;DHT22;38460;53.106;7.004;2022-09-27T14:11:09;12.00;99.90
52565;DHT22;38460;53.106;7.004;2022-09-27T14:13:37;11.90;99.90
52565;DHT22;38460;53.106;7.004;2022-09-27T14:16:04;12.00;99.90
52565;DHT22;38460;53.106;7.004;2022-09-27T14:18:31;12.00;99.90
52565;DHT22;38460;53.106;7.004;2022-09-27T14:21:16;11.90;99.90
52565;DHT22;38460;53.106;7.004;2022-09-27T14:23:43;11.90;99.90
52565;DHT22;38460;53.106;7.004;2022-09-27T14:26:24;11.90;99.90
52565;DHT22;38460;53.106;7.004;2022-09-27T14:28:50;11.90;99.90
52565;DHT22;38460;53.106;7.004;2022-09-27T14:31:21;11.80;99.90
52565;DHT22;38460;53.106;7.004;2022-09-27T14:33:48;11.70;99.90
52565;DHT22;38460;53.106;7.004;2022-09-27T14:36:21;11.50;99.90
52565;DHT22;38460;53.106;7.004;2022-09-27T14:39:30;11.40;99.90
52565;DHT22;38460;53.106;7.004;2022-09-27T14:42:00;11.20;99.90
52565;DHT22;38460;53.106;7.004;2022-09-27T14:44:27;11.10;99.90
52565;DHT22;38460;53.106;7.004;2022-09-27T14:49:56;10.90;99.90
52565;DHT22;38460;53.106;7.004;2022-09-27T14:52:29;10.70;99.90
52565;DHT22;38460;53.106;7.004;2022-09-27T14:54:58;10.70;99.90
52565;DHT22;38460;53.106;7.004;2022-09-27T14:57:25;10.60;99.90
52565;DHT22;38460;53.106;7.004;2022-09-27T14:59:53;10.60;99.90
52565;DHT22;38460;53.106;7.004;2022-09-27T15:02:20;10.60;99.90
52565;DHT22;38460;53.106;7.004;2022-09-27T15:04:49;10.50;99.90
52565;DHT22;38460;53.106;7.004;2022-09-27T15:07:17;10.50;99.90
52565;DHT22;38460;53.106;7.004;2022-09-27T15:09:43;10.50;99.90
52565;DHT22;38460;53.106;7.004;2022-09-27T15:12:14;10.40;99.90
52565;DHT22;38460;53.106;7.004;2022-09-27T15:14:40;10.40;99.90
52565;DHT22;38460;53.106;7.004;2022-09-27T15:17:20;10.40;99.90
52565;DHT22;38460;53.106;7.004;2022-09-27T15:19:59;10.50;99.90
52565;DHT22;38460;53.106;7.004;2022-09-27T15:22:50;10.40;99.90
52565;DHT22;38460;53.106;7.004;2022-09-27T15:25:41;10.40;99.90
52565;DHT22;38460;53.106;7.004;2022-09-27T15:30:39;10.40;99.90
52565;DHT22;38460;53.106;7.004;2022-09-27T15:33:21;10.50;99.90
52565;DHT22;38460;53.106;7.004;2022-09-27T15:35:54;10.50;99.90
52565;DHT22;38460;53.106;7.004;2022-09-27T15:38:34;10.50;99.90
52565;DHT22;38460;53.106;7.004;2022-09-27T15:41:11;10.50;99.90
52565;DHT22;38460;53.106;7.004;2022-09-27T15:43:43;10.40;99.90
52565;DHT22;38460;53.106;7.004;2022-09-27T15:46:28;10.50;99.90
52565;DHT22;38460;53.106;7.004;2022-09-27T15:51:45;10.50;99.90
52565;DHT22;38460;53.106;7.004;2022-09-27T15:54:11;10.40;99.90
52565;DHT22;38460;53.106;7.004;2022-09-27T15:56:38;10.50;99.90
52565;DHT22;38460;53.106;7.004;2022-09-27T15:59:05;10.40;99.90
52565;DHT22;38460;53.106;7.004;2022-09-27T16:01:32;10.40;99.90
52565;DHT22;38460;53.106;7.004;2022-09-27T16:03:58;10.50;99.90
52565;DHT22;38460;53.106;7.004;2022-09-27T16:06:27;10.40;99.90
52565;DHT22;38460;53.106;7.004;2022-09-27T16:08:58;10.50;99.90
52565;DHT22;38460;53.106;7.004;2022-09-27T16:11:24;10.50;99.90
52565;DHT22;38460;53.106;7.004;2022-09-27T16:13:49;10.40;99.90
52565;DHT22;38460;53.106;7.004;2022-09-27T16:16:19;10.40;99.90
52565;DHT22;38460;53.106;7.004;2022-09-27T16:18:45;10.50;99.90
52565;DHT22;38460;53.106;7.004;2022-09-27T16:21:11;10.40;99.90
52565;DHT22;38460;53.106;7.004;2022-09-27T16:23:37;10.40;99.90
52565;DHT22;38460;53.106;7.004;2022-09-27T16:26:03;10.40;99.90
52565;DHT22;38460;53.106;7.004;2022-09-27T16:28:30;10.40;99.90
52565;DHT22;38460;53.106;7.004;2022-09-27T16:31:04;10.40;99.90
52565;DHT22;38460;53.106;7.004;2022-09-27T16:33:31;10.40;99.90
52565;DHT22;38460;53.106;7.004;2022-09-27T16:36:03;10.40;99.90
52565;DHT22;38460;53.106;7.004;2022-09-27T16:38:29;10.40;99.90
52565;DHT22;38460;53.106;7.004;2022-09-27T16:40:59;10.30;99.90
52565;DHT22;38460;53.106;7.004;2022-09-27T16:43:26;10.30;99.90
52565;DHT22;38460;53.106;7.004;2022-09-27T16:45:53;10.30;99.90
52565;DHT22;38460;53.106;7.004;2022-09-27T16:48:20;10.30;99.90
52565;DHT22;38460;53.106;7.004;2022-09-27T16:50:45;10.30;99.90
52565;DHT22;38460;53.106;7.004;2022-09-27T16:53:29;10.30;99.90
52565;DHT22;38460;53.106;7.004;2022-09-27T16:55:59;10.20;99.90
52565;DHT22;38460;53.106;7.004;2022-09-27T16:58:25;10.20;99.90
52565;DHT22;38460;53.106;7.004;2022-09-27T17:00:51;10.20;99.90
52565;DHT22;38460;53.106;7.004;2022-09-27T17:03:17;10.20;99.90
52565;DHT22;38460;53.106;7.004;2022-09-27T17:05:43;10.20;99.90
52565;DHT22;38460;53.106;7.004;2022-09-27T17:08:09;10.10;99.90
52565;DHT22;38460;53.106;7.004;2022-09-27T17:10:35;10.10;99.90
52565;DHT22;38460;53.106;7.004;2022-09-27T17:13:03;10.10;99.90
52565;DHT22;38460;53.106;7.004;2022-09-27T17:15:28;10.10;99.90
52565;DHT22;38460;53.106;7.004;2022-09-27T17:17:54;10.00;99.90
52565;DHT22;38460;53.106;7.004;2022-09-27T17:20:20;10.00;99.90
52565;DHT22;38460;53.106;7.004;2022-09-27T17:22:45;10.00;99.90
52565;DHT22;38460;53.106;7.004;2022-09-27T17:25:11;10.00;99.90
52565;DHT22;38460;53.106;7.004;2022-09-27T17:27:37;10.00;99.90
52565;DHT22;38460;53.106;7.004;2022-09-27T17:30:03;9.90;99.90
52565;DHT22;38460;53.106;7.004;2022-09-27T17:32:31;9.90;99.90
52565;DHT22;38460;53.106;7.004;2022-09-27T17:34:56;9.90;99.90
52565;DHT22;38460;53.106;7.004;2022-09-27T17:37:23;9.90;99.90
52565;DHT22;38460;53.106;7.004;2022-09-27T17:39:49;9.90;99.90
52565;DHT22;38460;53.106;7.004;2022-09-27T17:42:15;9.90;99.90
52565;DHT22;38460;53.106;7.004;2022-09-27T17:44:43;9.80;99.90
52565;DHT22;38460;53.106;7.004;2022-09-27T17:47:09;9.80;99.90
52565;DHT22;38460;53.106;7.004;2022-09-27T17:49:53;9.80;99.90
52565;DHT22;38460;53.106;7.004;2022-09-27T17:52:37;9.80;99.90
52565;DHT22;38460;53.106;7.004;2022-09-27T17:55:03;9.80;99.90
52565;DHT22;38460;53.106;7.004;2022-09-27T17:57:29;9.80;99.90
52565;DHT22;38460;53.106;7.004;2022-09-27T17:59:56;9.80;99.90
52565;DHT22;38460;53.106;7.004;2022-09-27T18:02:22;9.70;99.90
52565;DHT22;38460;53.106;7.004;2022-09-27T18:04:48;9.70;99.90
52565;DHT22;38460;53.106;7.004;2022-09-27T18:07:13;9.70;99.90
52565;DHT22;38460;53.106;7.004;2022-09-27T18:09:39;9.60;99.90
52565;DHT22;38460;53.106;7.004;2022-09-27T18:12:05;9.60;99.90
52565;DHT22;38460;53.106;7.004;2022-09-27T18:14:31;9.60;99.90
52565;DHT22;38460;53.106;7.004;2022-09-27T18:16:57;9.60;99.90
52565;DHT22;38460;53.106;7.004;2022-09-27T18:19:23;9.50;99.90
52565;DHT22;38460;53.106;7.004;2022-09-27T18:21:49;9.50;99.90
52565;DHT22;38460;53.106;7.004;2022-09-27T18:24:15;9.50;99.90
52565;DHT22;38460;53.106;7.004;2022-09-27T18:26:42;9.40;99.90
52565;DHT22;38460;53.106;7.004;2022-09-27T18:29:16;9.40;99.90
52565;DHT22;38460;53.106;7.004;2022-09-27T18:31:45;9.40;99.90
52565;DHT22;38460;53.106;7.004;2022-09-27T18:34:13;9.40;99.90
52565;DHT22;38460;53.106;7.004;2022-09-27T18:36:38;9.30;99.90
52565;DHT22;38460;53.106;7.004;2022-09-27T18:39:10;9.30;99.90
52565;DHT22;38460;53.106;7.004;2022-09-27T18:41:36;9.20;99.90
52565;DHT22;38460;53.106;7.004;2022-09-27T18:44:04;9.20;99.90
52565;DHT22;38460;53.106;7.004;2022-09-27T18:46:32;9.20;99.90
52565;DHT22;38460;53.106;7.004;2022-09-27T18:49:02;9.20;99.90
52565;DHT22;38460;53.106;7.004;2022-09-27T18:51:28;9.10;99.90
52565;DHT22;38460;53.106;7.004;2022-09-27T18:53:57;9.10;99.90
52565;DHT22;38460;53.106;7.004;2022-09-27T18:56:24;9.10;99.90
52565;DHT22;38460;53.106;7.004;2022-09-27T18:58:50;9.00;99.90
52565;DHT22;38460;53.106;7.004;2022-09-27T19:01:17;9.00;99.90
52565;DHT22;38460;53.106;7.004;2022-09-27T19:03:43;9.00;99.90